createdAt,value
2018-12-04T00:01:40.049Z,21.19
2018-12-04T00:04:06.087Z,21.20
2018-12-04T00:06:32.137Z,21.20
2018-12-04T00:08:58.099Z,21.20
2018-12-04T00:11:24.071Z,21.19
2018-12-04T00:13:50.122Z,21.19
2018-12-04T00:16:16.075Z,21.17
2018-12-04T00:18:42.080Z,21.19
2018-12-04T00:21:08.043Z,21.17
2018-12-04T00:23:33.954Z,21.17
2018-12-04T00:25:59.919Z,21.15
2018-12-04T00:28:25.906Z,21.14
2018-12-04T00:30:51.867Z,21.15
2018-12-04T00:33:17.828Z,21.15
2018-12-04T00:35:43.800Z,21.12
2018-12-04T00:38:09.809Z,21.12
2018-12-04T00:40:35.756Z,21.12
2018-12-04T00:43:01.702Z,21.12
2018-12-04T00:45:27.655Z,21.12
2018-12-04T00:47:53.607Z,21.12
2018-12-04T00:50:19.565Z,21.12
2018-12-04T00:52:45.523Z,21.12
2018-12-04T00:55:11.476Z,21.13
2018-12-04T00:57:37.427Z,21.10
2018-12-04T01:00:03.437Z,21.12
2018-12-04T01:02:29.404Z,21.10
2018-12-04T01:04:55.362Z,21.10
2018-12-04T01:07:21.434Z,21.11
2018-12-04T01:09:47.580Z,21.10
2018-12-04T01:12:13.545Z,21.10
2018-12-04T01:14:39.502Z,21.09
2018-12-04T01:17:05.494Z,21.09
2018-12-04T01:22:03.959Z,21.08
2018-12-04T01:24:29.946Z,21.08
2018-12-04T01:26:55.897Z,21.08
2018-12-04T01:29:21.857Z,21.08
2018-12-04T01:31:47.838Z,21.07
2018-12-04T01:34:13.825Z,21.08
2018-12-04T01:36:40.846Z,21.08
2018-12-04T01:39:06.795Z,21.07
2018-12-04T01:41:33.666Z,21.08
2018-12-04T01:43:59.653Z,21.09
2018-12-04T01:46:25.594Z,21.09
2018-12-04T01:48:51.552Z,21.08
2018-12-04T01:51:17.532Z,21.08
2018-12-04T01:53:43.470Z,21.07
2018-12-04T01:56:09.442Z,21.06
2018-12-04T01:58:35.415Z,21.06
2018-12-04T02:01:01.438Z,21.05
2018-12-04T02:03:27.397Z,21.03
2018-12-04T02:05:53.359Z,21.04
2018-12-04T02:08:19.339Z,21.04
2018-12-04T02:10:45.277Z,21.04
2018-12-04T02:13:11.265Z,21.04
2018-12-04T02:15:37.210Z,21.04
2018-12-04T02:18:03.245Z,21.05
2018-12-04T02:20:29.205Z,21.05
2018-12-04T02:22:55.237Z,21.06
2018-12-04T02:25:21.198Z,21.08
2018-12-04T02:27:47.177Z,21.07
2018-12-04T02:30:13.149Z,21.08
2018-12-04T02:32:39.172Z,21.07
2018-12-04T02:35:05.229Z,21.07
2018-12-04T02:37:31.185Z,21.07
2018-12-04T02:39:57.153Z,21.07
2018-12-04T02:42:23.104Z,21.05
2018-12-04T02:44:49.252Z,21.02
2018-12-04T02:47:15.211Z,21.03
2018-12-04T02:49:41.195Z,21.04
2018-12-04T02:52:07.144Z,21.03
2018-12-04T02:54:33.114Z,21.06
2018-12-04T02:56:59.087Z,21.06
2018-12-04T02:59:25.051Z,21.08
2018-12-04T03:01:51.031Z,21.08
2018-12-04T03:04:16.971Z,21.07
2018-12-04T03:06:42.972Z,21.08
2018-12-04T03:09:08.971Z,21.08
2018-12-04T03:11:34.946Z,21.08
2018-12-04T03:14:00.908Z,21.07
2018-12-04T03:16:26.877Z,21.09
2018-12-04T03:18:52.824Z,21.11
2018-12-04T03:21:18.785Z,21.11
2018-12-04T03:23:44.781Z,21.12
2018-12-04T03:26:10.707Z,21.11
2018-12-04T03:28:36.682Z,21.12
2018-12-04T03:31:02.635Z,21.13
2018-12-04T03:33:28.580Z,21.13
2018-12-04T03:35:54.532Z,21.13
2018-12-04T03:38:20.583Z,21.14
2018-12-04T03:40:46.581Z,21.13
2018-12-04T03:43:12.565Z,21.14
2018-12-04T03:45:38.539Z,21.13
2018-12-04T03:48:04.486Z,21.14
2018-12-04T03:50:30.509Z,21.15
2018-12-04T03:52:56.467Z,21.16
2018-12-04T03:55:22.473Z,21.15
2018-12-04T03:57:48.426Z,21.13
2018-12-04T04:00:14.415Z,21.14
2018-12-04T04:02:40.438Z,21.13
2018-12-04T04:05:06.382Z,21.13
2018-12-04T04:07:32.342Z,21.15
2018-12-04T04:09:58.309Z,21.16
2018-12-04T04:12:24.276Z,21.17
2018-12-04T04:14:50.235Z,21.15
2018-12-04T04:17:16.325Z,21.15
2018-12-04T04:19:42.290Z,21.15
2018-12-04T04:22:08.380Z,21.16
2018-12-04T04:24:34.334Z,21.15
2018-12-04T04:27:00.314Z,21.17
2018-12-04T04:29:26.274Z,21.17
2018-12-04T04:31:52.240Z,21.18
2018-12-04T04:34:18.182Z,21.19
2018-12-04T04:36:44.226Z,21.18
2018-12-04T04:39:10.237Z,21.18
2018-12-04T04:41:36.186Z,21.19
2018-12-04T04:44:02.139Z,21.19
2018-12-04T04:46:28.183Z,21.17
2018-12-04T04:48:54.143Z,21.15
2018-12-04T04:51:20.088Z,21.15
2018-12-04T04:53:46.054Z,21.16
2018-12-04T04:56:12.059Z,21.17
2018-12-04T04:58:38.149Z,21.19
2018-12-04T05:01:04.235Z,21.16
2018-12-04T05:03:30.739Z,21.18
2018-12-04T05:05:56.705Z,21.19
2018-12-04T05:08:22.663Z,21.20
2018-12-04T05:10:48.645Z,21.18
2018-12-04T05:13:14.587Z,21.19
2018-12-04T05:15:40.536Z,21.18
2018-12-04T05:18:06.497Z,21.18
2018-12-04T05:20:32.449Z,21.14
2018-12-04T05:22:58.419Z,21.15
2018-12-04T05:25:24.374Z,21.18
2018-12-04T05:27:50.439Z,21.18
2018-12-04T05:30:16.399Z,21.19
2018-12-04T05:32:42.376Z,21.19
2018-12-04T05:35:08.350Z,21.19
2018-12-04T05:37:34.342Z,21.17
2018-12-04T05:40:00.314Z,21.18
2018-12-04T05:42:26.269Z,21.19
2018-12-04T05:44:52.238Z,21.20
2018-12-04T05:47:18.198Z,21.19
2018-12-04T05:49:44.181Z,21.18
2018-12-04T05:52:10.130Z,21.18
2018-12-04T05:54:36.087Z,21.18
2018-12-04T05:57:03.111Z,21.15
2018-12-04T05:59:29.069Z,21.15
2018-12-04T06:01:55.050Z,21.16
2018-12-04T06:04:21.019Z,21.17
2018-12-04T06:06:47.063Z,21.18
2018-12-04T06:09:13.008Z,21.17
2018-12-04T06:11:39.002Z,21.17
2018-12-04T06:14:04.998Z,21.16
2018-12-04T06:16:30.965Z,21.17
2018-12-04T06:18:56.917Z,21.16
2018-12-04T06:21:22.899Z,21.16
2018-12-04T06:23:48.835Z,21.15
2018-12-04T06:26:14.797Z,21.15
2018-12-04T06:28:40.771Z,21.17
2018-12-04T06:31:06.722Z,21.15
2018-12-04T06:33:32.661Z,21.17
2018-12-04T06:35:58.637Z,21.15
2018-12-04T06:38:24.591Z,21.16
2018-12-04T06:40:50.542Z,21.16
2018-12-04T06:43:16.496Z,21.15
2018-12-04T06:45:42.481Z,21.15
2018-12-04T06:48:08.446Z,21.15
2018-12-04T06:50:34.421Z,21.15
2018-12-04T06:53:00.377Z,21.15
2018-12-04T06:55:26.467Z,21.13
2018-12-04T06:57:52.437Z,21.13
2018-12-04T07:00:18.433Z,21.13
2018-12-04T07:02:44.379Z,21.11
2018-12-04T07:05:10.327Z,21.11
2018-12-04T07:07:36.305Z,21.11
2018-12-04T07:10:02.283Z,21.10
2018-12-04T07:12:28.254Z,21.12
2018-12-04T07:14:54.205Z,21.12
2018-12-04T07:17:20.159Z,21.12
2018-12-04T07:19:46.116Z,21.13
2018-12-04T07:22:12.070Z,21.13
2018-12-04T07:24:38.018Z,21.11
2018-12-04T07:27:03.982Z,21.11
2018-12-04T07:29:29.932Z,21.13
2018-12-04T07:31:55.894Z,21.11
2018-12-04T07:34:21.903Z,21.12
2018-12-04T07:36:47.926Z,21.12
2018-12-04T07:39:13.958Z,21.12
2018-12-04T07:41:39.908Z,21.12
2018-12-04T07:44:05.867Z,21.12
2018-12-04T07:46:31.867Z,21.12
2018-12-04T07:48:57.829Z,21.11
2018-12-04T07:51:23.819Z,21.10
2018-12-04T07:53:49.782Z,21.11
2018-12-04T07:56:15.734Z,21.09
2018-12-04T07:58:41.693Z,21.10
2018-12-04T08:01:07.673Z,21.12
2018-12-04T08:03:33.695Z,21.13
2018-12-04T08:05:59.638Z,21.13
2018-12-04T08:08:25.626Z,21.13
2018-12-04T08:10:51.619Z,21.12
2018-12-04T08:13:17.615Z,21.15
2018-12-04T08:15:43.557Z,21.08
2018-12-04T08:18:09.527Z,21.07
2018-12-04T08:20:35.490Z,21.09
2018-12-04T08:23:01.668Z,21.09
2018-12-04T08:25:27.702Z,21.12
2018-12-04T08:27:53.666Z,21.12
2018-12-04T08:30:19.639Z,21.14
2018-12-04T08:32:45.778Z,21.16
2018-12-04T08:35:11.857Z,21.15
2018-12-04T08:37:37.825Z,21.16
2018-12-04T08:40:03.766Z,21.16
2018-12-04T08:42:29.722Z,21.15
2018-12-04T08:44:55.708Z,21.12
2018-12-04T08:47:21.670Z,21.13
2018-12-04T08:49:47.663Z,21.13
2018-12-04T08:52:13.617Z,21.16
2018-12-04T08:54:39.578Z,21.17
2018-12-04T08:57:05.785Z,21.16
2018-12-04T08:59:31.738Z,21.17
2018-12-04T09:01:57.725Z,21.17
2018-12-04T09:04:23.674Z,21.17
2018-12-04T09:06:49.746Z,21.16
2018-12-04T09:09:15.727Z,21.14
2018-12-04T09:11:41.693Z,21.16
2018-12-04T09:14:07.652Z,21.15
2018-12-04T09:16:33.610Z,21.14
2018-12-04T09:18:59.626Z,21.15
2018-12-04T09:21:25.759Z,21.15
2018-12-04T09:23:51.909Z,21.16
2018-12-04T09:26:18.049Z,21.16
2018-12-04T09:28:44.082Z,21.16
2018-12-04T09:31:10.127Z,21.15
2018-12-04T09:33:36.176Z,21.15
2018-12-04T09:36:02.190Z,21.15
2018-12-04T09:38:28.159Z,21.16
2018-12-04T09:40:54.113Z,21.16
2018-12-04T09:43:20.094Z,21.17
2018-12-04T09:45:46.059Z,21.16
2018-12-04T09:48:12.014Z,21.17
2018-12-04T09:50:37.968Z,21.16
2018-12-04T09:53:03.918Z,21.15
2018-12-04T09:55:30.060Z,21.16
2018-12-04T09:57:56.008Z,21.16
2018-12-04T10:00:22.022Z,21.15
2018-12-04T10:02:47.990Z,21.13
2018-12-04T10:05:13.930Z,21.13
2018-12-04T10:07:39.886Z,21.14
2018-12-04T10:10:05.874Z,21.15
2018-12-04T10:12:31.812Z,21.16
2018-12-04T10:14:57.787Z,21.15
2018-12-04T10:17:23.761Z,21.15
2018-12-04T10:19:49.771Z,21.14
2018-12-04T10:22:15.754Z,21.14
2018-12-04T10:24:41.699Z,21.13
2018-12-04T10:27:07.673Z,21.13
2018-12-04T10:29:33.622Z,21.15
2018-12-04T10:31:59.560Z,21.15
2018-12-04T10:34:25.514Z,21.17
2018-12-04T10:36:51.522Z,21.15
2018-12-04T10:39:17.501Z,21.16
2018-12-04T10:41:43.481Z,21.15
2018-12-04T10:44:09.454Z,21.16
2018-12-04T10:46:35.422Z,21.15
2018-12-04T10:49:01.420Z,21.15
2018-12-04T10:51:27.451Z,21.15
2018-12-04T10:53:53.443Z,21.15
2018-12-04T10:56:19.675Z,21.16
2018-12-04T10:58:45.643Z,21.15
2018-12-04T11:01:11.601Z,21.16
2018-12-04T11:03:37.548Z,21.17
2018-12-04T11:06:03.511Z,21.16
2018-12-04T11:08:29.466Z,21.16
2018-12-04T11:10:55.436Z,21.15
2018-12-04T11:13:21.385Z,21.15
2018-12-04T11:15:47.368Z,21.16
2018-12-04T11:18:13.330Z,21.17
2018-12-04T11:20:39.351Z,21.18
2018-12-04T11:23:05.365Z,21.18
2018-12-04T11:25:31.343Z,21.18
2018-12-04T11:27:57.289Z,21.19
2018-12-04T11:30:23.261Z,21.19
2018-12-04T11:32:49.230Z,21.20
2018-12-04T11:35:15.196Z,21.21
2018-12-04T11:37:41.136Z,21.21
2018-12-04T11:40:07.091Z,21.21
2018-12-04T11:42:33.054Z,21.23
2018-12-04T11:44:59.010Z,21.23
2018-12-04T11:47:24.958Z,21.24
2018-12-04T11:49:50.919Z,21.25
2018-12-04T11:52:16.869Z,21.24
2018-12-04T11:54:42.824Z,21.22
2018-12-04T11:57:08.799Z,21.23
2018-12-04T11:59:34.755Z,21.24
2018-12-04T12:02:00.823Z,21.24
2018-12-04T12:04:26.874Z,21.23
2018-12-04T12:06:52.830Z,21.23
2018-12-04T12:09:18.790Z,21.24
2018-12-04T12:11:44.761Z,21.23
2018-12-04T12:14:10.715Z,21.22
2018-12-04T12:16:36.671Z,21.20
2018-12-04T12:19:02.643Z,21.22
2018-12-04T12:21:28.615Z,21.24
2018-12-04T12:23:54.573Z,21.24
2018-12-04T12:26:20.534Z,21.23
2018-12-04T12:28:46.490Z,21.23
2018-12-04T12:31:12.463Z,21.21
2018-12-04T12:33:38.444Z,21.22
2018-12-04T12:36:04.493Z,21.21
2018-12-04T12:38:30.466Z,21.21
2018-12-04T12:40:56.426Z,21.16
2018-12-04T12:43:22.371Z,21.18
2018-12-04T12:45:48.407Z,21.16
2018-12-04T12:48:14.382Z,21.20
2018-12-04T12:50:40.342Z,21.21
2018-12-04T12:53:06.341Z,21.23
2018-12-04T12:55:32.298Z,21.25
2018-12-04T12:57:58.279Z,21.25
2018-12-04T13:00:24.233Z,21.26
2018-12-04T13:02:50.188Z,21.27
2018-12-04T13:05:16.138Z,21.26
2018-12-04T13:07:42.105Z,21.27
2018-12-04T13:10:08.072Z,21.26
2018-12-04T13:12:34.030Z,21.27
2018-12-04T13:15:00.003Z,21.27
2018-12-04T13:17:26.058Z,21.23
2018-12-04T13:19:52.177Z,21.26
2018-12-04T13:22:18.116Z,21.27
2018-12-04T13:24:44.162Z,21.27
2018-12-04T13:27:10.119Z,21.27
2018-12-04T13:29:36.111Z,21.28
2018-12-04T13:32:02.155Z,21.28
2018-12-04T13:34:28.140Z,21.28
2018-12-04T13:36:54.224Z,21.28
2018-12-04T13:39:20.276Z,21.29
2018-12-04T13:41:46.537Z,21.29
2018-12-04T13:44:12.543Z,21.29
2018-12-04T13:46:38.493Z,21.29
2018-12-04T13:49:04.475Z,21.28
2018-12-04T13:51:30.426Z,21.28
2018-12-04T13:53:56.406Z,21.27
2018-12-04T13:56:22.463Z,21.28
2018-12-04T13:58:49.061Z,21.25
2018-12-04T14:01:15.158Z,21.27
2018-12-04T14:03:41.255Z,21.26
2018-12-04T14:06:07.306Z,21.28
2018-12-04T14:08:33.274Z,21.24
2018-12-04T14:10:59.238Z,21.25
2018-12-04T14:13:25.295Z,21.27
2018-12-04T14:15:51.407Z,21.27
2018-12-04T14:18:17.443Z,21.26
2018-12-04T14:20:43.440Z,21.22
2018-12-04T14:23:09.493Z,21.18
2018-12-04T14:25:35.537Z,21.19
2018-12-04T14:28:01.604Z,21.22
2018-12-04T14:30:27.566Z,21.16
2018-12-04T14:32:53.567Z,21.20
2018-12-04T14:35:19.505Z,21.20
2018-12-04T14:37:45.466Z,21.16
2018-12-04T14:40:11.437Z,21.14
2018-12-04T14:42:37.510Z,21.14
2018-12-04T14:45:04.130Z,21.15
2018-12-04T14:47:30.117Z,21.18
2018-12-04T14:49:56.175Z,21.16
2018-12-04T14:52:22.247Z,21.15
2018-12-04T14:54:48.270Z,21.15
2018-12-04T14:57:14.242Z,21.16
2018-12-04T14:59:40.343Z,21.17
2018-12-04T15:02:06.397Z,21.17
2018-12-04T15:04:32.516Z,21.18
2018-12-04T15:06:58.638Z,21.22
2018-12-04T15:09:24.664Z,21.22
2018-12-04T15:11:50.771Z,21.22
2018-12-04T15:14:16.744Z,21.23
2018-12-04T15:16:42.717Z,21.24
2018-12-04T15:19:08.705Z,21.26
2018-12-04T15:21:34.734Z,21.27
2018-12-04T15:24:00.729Z,21.26
2018-12-04T15:26:26.801Z,21.24
2018-12-04T15:28:52.870Z,21.26
2018-12-04T15:31:18.955Z,21.23
2018-12-04T15:33:45.007Z,21.21
2018-12-04T15:36:11.032Z,21.20
2018-12-04T15:38:37.108Z,21.19
2018-12-04T15:41:03.147Z,21.23
2018-12-04T15:43:29.111Z,21.24
2018-12-04T15:45:55.155Z,21.24
2018-12-04T15:48:21.126Z,21.24
2018-12-04T15:50:47.311Z,21.25
2018-12-04T15:53:13.408Z,21.27
2018-12-04T15:55:39.454Z,21.26
2018-12-04T15:58:05.431Z,21.29
2018-12-04T16:00:31.391Z,21.29
2018-12-04T16:02:57.358Z,21.29
2018-12-04T16:05:23.340Z,21.29
2018-12-04T16:07:49.305Z,21.29
2018-12-04T16:10:15.266Z,21.29
2018-12-04T16:12:41.217Z,21.29
2018-12-04T16:15:07.170Z,21.28
2018-12-04T16:17:33.132Z,21.28
2018-12-04T16:19:59.174Z,21.28
2018-12-04T16:22:25.134Z,21.27
2018-12-04T16:24:51.140Z,21.27
2018-12-04T16:27:17.100Z,21.25
2018-12-04T16:29:43.061Z,21.26
2018-12-04T16:32:09.027Z,21.27
2018-12-04T16:34:35.008Z,21.26
2018-12-04T16:37:00.968Z,21.25
2018-12-04T16:39:27.007Z,21.25
2018-12-04T16:41:53.032Z,21.25
2018-12-04T16:44:19.066Z,21.25
2018-12-04T16:46:45.089Z,21.22
2018-12-04T16:49:11.133Z,21.25
2018-12-04T16:51:37.149Z,21.24
2018-12-04T16:54:03.139Z,21.23
2018-12-04T16:56:29.303Z,21.24
2018-12-04T16:58:55.283Z,21.18
2018-12-04T17:01:21.236Z,21.19
2018-12-04T17:03:47.223Z,21.22
2018-12-04T17:06:13.182Z,21.22
2018-12-04T17:08:39.155Z,21.19
2018-12-04T17:11:05.101Z,21.18
2018-12-04T17:13:31.054Z,21.19
2018-12-04T17:15:57.029Z,21.21
2018-12-04T17:18:22.988Z,21.19
2018-12-04T17:20:48.999Z,21.19
2018-12-04T17:23:14.987Z,21.18
2018-12-04T17:25:40.940Z,21.19
2018-12-04T17:28:06.906Z,21.17
2018-12-04T17:30:32.859Z,21.16
2018-12-04T17:32:58.947Z,21.15
2018-12-04T17:35:24.916Z,21.15
2018-12-04T17:37:50.880Z,21.15
2018-12-04T17:40:16.869Z,21.16
2018-12-04T17:42:42.835Z,21.15
2018-12-04T17:45:08.809Z,21.16
2018-12-04T17:47:34.791Z,21.15
2018-12-04T17:50:00.754Z,21.13
2018-12-04T17:52:26.772Z,21.15
2018-12-04T17:54:52.778Z,21.12
2018-12-04T17:57:18.717Z,21.13
2018-12-04T17:59:44.689Z,21.13
2018-12-04T18:02:10.646Z,21.12
2018-12-04T18:04:36.639Z,21.08
2018-12-04T18:07:02.734Z,21.02
2018-12-04T18:09:28.759Z,21.01
2018-12-04T18:11:54.734Z,21.03
2018-12-04T18:14:20.702Z,21.05
2018-12-04T18:16:46.670Z,21.03
2018-12-04T18:19:12.676Z,21.04
2018-12-04T18:21:38.658Z,21.02
2018-12-04T18:24:04.626Z,21.02
2018-12-04T18:26:30.770Z,21.03
2018-12-04T18:28:56.733Z,21.06
2018-12-04T18:31:22.707Z,21.07
2018-12-04T18:33:48.699Z,21.07
2018-12-04T18:36:14.639Z,21.08
2018-12-04T18:38:40.600Z,21.08
2018-12-04T18:41:06.623Z,21.10
2018-12-04T18:43:32.585Z,21.11
2018-12-04T18:45:58.558Z,21.10
2018-12-04T18:48:24.540Z,21.08
2018-12-04T18:50:50.495Z,21.11
2018-12-04T18:53:16.465Z,21.11
2018-12-04T18:55:42.455Z,21.11
2018-12-04T18:58:08.418Z,21.11
2018-12-04T19:00:34.497Z,21.10
2018-12-04T19:03:00.457Z,21.09
2018-12-04T19:05:26.529Z,21.10
2018-12-04T19:07:52.501Z,21.10
2018-12-04T19:10:18.566Z,21.09
2018-12-04T19:12:44.552Z,21.10
2018-12-04T19:15:10.498Z,21.10
2018-12-04T19:17:36.448Z,21.12
2018-12-04T19:20:02.413Z,21.13
2018-12-04T19:22:28.428Z,21.13
2018-12-04T19:24:54.389Z,21.11
2018-12-04T19:27:20.378Z,21.10
2018-12-04T19:29:46.421Z,21.11
2018-12-04T19:32:12.397Z,21.09
2018-12-04T19:34:38.363Z,21.11
2018-12-04T19:37:04.362Z,21.08
2018-12-04T19:39:30.327Z,21.08
2018-12-04T19:41:56.294Z,21.08
2018-12-04T19:44:22.288Z,21.08
2018-12-04T19:46:48.449Z,21.10
2018-12-04T19:49:14.438Z,21.10
2018-12-04T19:51:40.456Z,21.10
2018-12-04T19:54:06.424Z,21.08
2018-12-04T19:56:32.367Z,21.08
2018-12-04T19:58:58.426Z,21.07
2018-12-04T20:01:24.428Z,21.08
2018-12-04T20:03:50.422Z,21.09
2018-12-04T20:06:16.443Z,21.11
2018-12-04T20:08:42.476Z,21.09
2018-12-04T20:11:08.427Z,21.09
2018-12-04T20:13:34.391Z,21.09
2018-12-04T20:16:00.384Z,21.09
2018-12-04T20:18:26.382Z,21.08
2018-12-04T20:20:52.359Z,21.09
2018-12-04T20:23:18.377Z,21.10
2018-12-04T20:25:44.611Z,21.09
2018-12-04T20:28:10.553Z,21.09
2018-12-04T20:30:36.551Z,21.08
2018-12-04T20:33:03.228Z,21.07
2018-12-04T20:35:29.198Z,21.06
2018-12-04T20:37:55.190Z,21.07
2018-12-04T20:40:21.157Z,21.07
2018-12-04T20:42:47.165Z,21.07
2018-12-04T20:45:13.187Z,21.04
2018-12-04T20:47:39.152Z,21.04
2018-12-04T20:50:06.179Z,21.03
2018-12-04T20:52:32.147Z,21.04
2018-12-04T20:54:58.146Z,21.03
2018-12-04T20:57:24.116Z,21.02
2018-12-04T20:59:50.095Z,21.02
2018-12-04T21:02:16.077Z,21.02
2018-12-04T21:04:42.069Z,21.01
2018-12-04T21:07:08.073Z,20.98
2018-12-04T21:09:34.096Z,21.01
2018-12-04T21:12:00.233Z,21.01
2018-12-04T21:14:26.274Z,21.01
2018-12-04T21:16:52.229Z,20.98
2018-12-04T21:19:18.202Z,20.99
2018-12-04T21:21:44.174Z,20.98
2018-12-04T21:24:10.155Z,20.97
2018-12-04T21:26:37.008Z,20.95
2018-12-04T21:29:03.147Z,20.95
2018-12-04T21:31:29.128Z,20.96
2018-12-04T21:33:55.097Z,20.95
2018-12-04T21:36:21.172Z,20.94
2018-12-04T21:38:47.195Z,20.98
2018-12-04T21:41:13.156Z,20.96
2018-12-04T21:43:39.131Z,20.96
2018-12-04T21:46:05.118Z,20.95
2018-12-04T21:48:31.076Z,20.95
2018-12-04T21:50:57.313Z,20.94
2018-12-04T21:53:23.341Z,20.93
2018-12-04T21:55:49.316Z,20.93
2018-12-04T21:58:15.285Z,20.92
2018-12-04T22:00:41.273Z,20.93
2018-12-04T22:03:07.247Z,20.93
2018-12-04T22:05:33.219Z,20.93
2018-12-04T22:07:59.172Z,20.91
2018-12-04T22:10:25.126Z,20.92
2018-12-04T22:12:51.175Z,20.92
2018-12-04T22:15:17.149Z,20.91
2018-12-04T22:17:43.119Z,20.91
2018-12-04T22:20:09.085Z,20.93
2018-12-04T22:22:35.093Z,20.97
2018-12-04T22:25:01.068Z,21.00
2018-12-04T22:27:27.022Z,20.98
2018-12-04T22:29:52.986Z,21.00
2018-12-04T22:32:18.966Z,20.99
2018-12-04T22:34:45.018Z,20.98
2018-12-04T22:37:11.002Z,20.98
2018-12-04T22:39:36.962Z,20.97
2018-12-04T22:42:02.957Z,20.97
2018-12-04T22:44:28.899Z,20.95
2018-12-04T22:46:54.872Z,20.96
2018-12-04T22:49:20.869Z,20.96
2018-12-04T22:51:47.204Z,20.94
2018-12-04T22:54:13.194Z,20.91
2018-12-04T22:56:39.383Z,20.90
2018-12-04T22:59:05.333Z,20.91
2018-12-04T23:01:31.324Z,20.93
2018-12-04T23:03:57.281Z,20.94
2018-12-04T23:06:23.276Z,20.93
2018-12-04T23:08:49.226Z,20.92
2018-12-04T23:11:15.189Z,20.93
2018-12-04T23:13:41.143Z,20.92
2018-12-04T23:16:07.139Z,20.92
2018-12-04T23:18:33.108Z,20.92
2018-12-04T23:20:59.066Z,20.92
2018-12-04T23:23:25.046Z,20.92
2018-12-04T23:25:51.008Z,20.90
2018-12-04T23:28:16.986Z,20.90
2018-12-04T23:30:42.957Z,20.89
2018-12-04T23:33:08.931Z,20.89
2018-12-04T23:35:34.970Z,20.88
2018-12-04T23:38:00.952Z,20.85
2018-12-04T23:40:26.903Z,20.87
2018-12-04T23:42:52.893Z,20.86
2018-12-04T23:45:18.869Z,20.86
2018-12-04T23:47:44.844Z,20.86
2018-12-04T23:50:11.074Z,20.84
2018-12-04T23:52:37.045Z,20.83
2018-12-04T23:55:03.012Z,20.83
2018-12-04T23:57:28.960Z,20.85
2018-12-04T23:59:54.911Z,20.83
